White Water, CA (92282)

1:29 PM PDT on August 27, 2015 (GMT -0700)
MesoWest | | Change Station
CLOSE
Current Station
Personal Weather Station
Location: White Water, CA
Elevation: 1133 ft
Nearby Weather Stations

Elev 1133 ft 33.90 °N, 116.64 °W | Updated 1 hour ago

Clear
Clear
108.0 °F
Feels Like 108.0 °F
N
6.0
Wind Variable Wind from ESE
Gusts 11.0 mph

Today
High -- | Low -- °F
--% Chance of Precip.
Yesterday
High -- | Low -- °F
Precip. -- in
6:16 AM 7:19 PM
Waxing Gibbous, 95% visible
Pressure 29.88 in
Visibility 10.0 miles
Clouds Scattered Clouds 11000 ft
Dew Point Not available.
Humidity Not available.
Rainfall in
Snow Depth Not available.
UV 9 out of 12
Pollen 5.10 out of 12
Air Quality Not available.
Flu Activity Not available.
METAR KPSP 271953Z 11012KT 10SM SCT110 43/13 A2990 RMK AO2 SLP118 T04280128
Pressure 29.88 in
Visibility 10.0 miles
Clouds Scattered Clouds 11000 ft
Dew Point Not available.
Humidity Not available.
Rainfall in
Snow Depth Not available.
UV 9 out of 12
Pollen 5.10 out of 12
Air Quality Not available.
Flu Activity Not available.
METAR KPSP 271953Z 11012KT 10SM SCT110 43/13 A2990 RMK AO2 SLP118 T04280128

10-Day Weather Forecast

×

Almanac

Astronomy

Aug. 27, 2015 Rise Set
Actual Time
Civil Twilight
Nautical Twilight
Astronomical Twilight
Moon
Length of Visible Light
Length of Day
Tomorrow will be .
, % of the Moon is Illuminated

Today's Extremes

State Highs State Lows

Community

WunderPhotos

Upload Photos

1,850,206 photos uploaded!

WunderBlogs® & News

Nearby

Air Quality

  Air Quality AQ Index Pollutant
Not available.

Snow Depth

Station Depth Elevation

Earthquake Activity

City Distance Mag. Time & Date
Minimum magnitude displayed is 2.5.

Coastal Water Temperatures

Place Temperature

Stations

Nearby Weather Stations

Station Location Temp. Windchill Dew Point Humidity Wind Precip. Elev Updated Type